createdAt,value
2017-07-12T00:03:19.286Z,18.86
2017-07-12T00:08:15.056Z,18.96
2017-07-12T00:13:10.846Z,18.88
2017-07-12T00:18:06.720Z,18.93
2017-07-12T00:23:02.669Z,18.81
2017-07-12T00:27:58.384Z,18.84
2017-07-12T00:32:54.694Z,18.88
2017-07-12T00:37:51.603Z,18.89
2017-07-12T00:42:47.002Z,18.92
2017-07-12T00:47:43.308Z,18.81
2017-07-12T00:52:40.441Z,18.81
2017-07-12T00:57:35.919Z,18.92
2017-07-12T01:02:32.083Z,18.78
2017-07-12T01:07:27.756Z,18.68
2017-07-12T01:12:23.621Z,18.52
2017-07-12T01:17:19.530Z,18.60
2017-07-12T01:22:15.352Z,18.50
2017-07-12T01:27:10.976Z,18.28
2017-07-12T01:32:06.411Z,18.05
2017-07-12T01:37:03.840Z,18.07
2017-07-12T01:42:00.414Z,17.87
2017-07-12T01:46:55.897Z,17.92
2017-07-12T01:51:51.605Z,17.57
2017-07-12T01:56:47.622Z,17.67
2017-07-12T02:01:43.403Z,17.64
2017-07-12T02:06:39.379Z,17.64
2017-07-12T02:11:36.228Z,17.63
2017-07-12T02:16:33.012Z,17.67
2017-07-12T02:21:28.748Z,17.54
2017-07-12T02:26:24.493Z,17.56
2017-07-12T02:31:20.371Z,17.67
2017-07-12T02:36:16.224Z,17.60
2017-07-12T02:41:12.955Z,17.52
2017-07-12T02:46:09.378Z,17.39
2017-07-12T02:51:04.935Z,17.60
2017-07-12T02:56:00.982Z,17.71
2017-07-12T03:00:56.831Z,17.76
2017-07-12T03:05:53.911Z,17.95
2017-07-12T03:10:49.448Z,18.01
2017-07-12T03:15:45.328Z,17.95
2017-07-12T03:20:42.085Z,17.89
2017-07-12T03:25:38.663Z,17.85
2017-07-12T03:30:35.319Z,17.60
2017-07-12T03:35:30.871Z,17.70
2017-07-12T03:40:26.548Z,17.57
2017-07-12T03:45:23.800Z,17.52
2017-07-12T03:50:19.426Z,17.49
2017-07-12T03:55:16.235Z,17.44
2017-07-12T04:00:13.279Z,17.49
2017-07-12T04:05:11.014Z,17.44
2017-07-12T04:10:06.209Z,17.60
2017-07-12T04:15:03.915Z,17.80
2017-07-12T04:19:59.274Z,17.79
2017-07-12T04:24:55.363Z,17.56
2017-07-12T04:29:51.155Z,17.70
2017-07-12T04:34:48.338Z,17.79
2017-07-12T04:39:45.082Z,17.74
2017-07-12T04:44:40.877Z,17.49
2017-07-12T04:49:37.752Z,17.63
2017-07-12T04:54:33.497Z,17.76
2017-07-12T04:59:29.427Z,17.59
2017-07-12T05:04:25.203Z,17.42
2017-07-12T05:09:21.092Z,17.49
2017-07-12T05:14:17.247Z,17.76
2017-07-12T05:19:13.387Z,17.90
2017-07-12T05:24:09.168Z,18.04
2017-07-12T05:29:04.966Z,18.15
2017-07-12T05:34:01.075Z,18.20
2017-07-12T05:38:57.085Z,18.18
2017-07-12T05:43:53.002Z,18.19
2017-07-12T05:48:48.902Z,18.19
2017-07-12T05:53:45.844Z,18.15
2017-07-12T05:58:41.028Z,18.19
2017-07-12T06:03:37.268Z,18.25
2017-07-12T06:08:34.207Z,18.16
2017-07-12T06:13:29.935Z,18.15
2017-07-12T06:18:25.929Z,18.29
2017-07-12T06:23:23.098Z,18.31
2017-07-12T06:28:18.632Z,18.22
2017-07-12T06:33:14.797Z,18.16
2017-07-12T06:38:10.869Z,18.29
2017-07-12T06:43:06.909Z,18.10
2017-07-12T06:48:03.481Z,18.40
2017-07-12T06:53:00.066Z,18.23
2017-07-12T06:57:55.803Z,18.22
2017-07-12T07:02:51.939Z,18.28
2017-07-12T07:07:47.769Z,18.23
2017-07-12T07:12:43.480Z,18.10
2017-07-12T07:17:39.073Z,17.97
2017-07-12T07:22:35.172Z,17.97
2017-07-12T07:27:30.910Z,17.94
2017-07-12T07:32:27.460Z,17.82
2017-07-12T07:37:24.281Z,17.78
2017-07-12T07:42:20.285Z,17.70
2017-07-12T07:47:16.226Z,17.72
2017-07-12T07:52:12.163Z,17.82
2017-07-12T07:57:09.047Z,17.86
2017-07-12T08:02:04.491Z,17.78
2017-07-12T08:07:00.657Z,17.64
2017-07-12T08:11:57.285Z,17.60
2017-07-12T08:16:52.846Z,17.48
2017-07-12T08:21:49.586Z,17.59
2017-07-12T08:26:45.171Z,17.71
2017-07-12T08:31:41.073Z,17.63
2017-07-12T08:36:37.443Z,17.56
2017-07-12T08:41:34.512Z,17.71
2017-07-12T08:46:30.755Z,17.94
2017-07-12T08:51:26.729Z,17.98
2017-07-12T08:56:23.474Z,17.97
2017-07-12T09:01:18.942Z,17.89
2017-07-12T09:06:14.783Z,17.78
2017-07-12T09:11:11.661Z,17.90
2017-07-12T09:16:08.704Z,18.01
2017-07-12T09:21:04.578Z,18.16
2017-07-12T09:35:52.269Z,18.05
2017-07-12T09:40:48.434Z,18.13
2017-07-12T09:45:44.457Z,17.90
2017-07-12T09:50:41.505Z,17.89
2017-07-12T09:55:37.245Z,18.03
2017-07-12T10:00:33.316Z,17.97
2017-07-12T10:05:30.273Z,18.03
2017-07-12T10:10:25.957Z,17.98
2017-07-12T10:15:22.506Z,18.04
2017-07-12T10:20:19.659Z,18.13
2017-07-12T10:25:16.230Z,18.26
2017-07-12T10:30:13.231Z,18.22
2017-07-12T10:35:08.666Z,18.18
2017-07-12T10:40:04.297Z,17.41
2017-07-12T10:44:59.854Z,17.14
2017-07-12T10:49:55.514Z,16.93
2017-07-12T10:54:52.092Z,16.84
2017-07-12T10:59:48.589Z,16.81
2017-07-12T11:04:43.903Z,16.91
2017-07-12T11:09:40.031Z,16.87
2017-07-12T11:14:35.969Z,16.71
2017-07-12T11:19:32.284Z,16.53
2017-07-12T11:24:27.896Z,16.66
2017-07-12T11:29:23.925Z,16.51
2017-07-12T11:34:19.877Z,16.53
2017-07-12T11:39:15.613Z,16.41
2017-07-12T11:44:11.582Z,16.49
2017-07-12T11:49:08.397Z,16.57
2017-07-12T11:54:03.919Z,16.66
2017-07-12T11:59:00.088Z,16.43
2017-07-12T12:03:56.374Z,16.51
2017-07-12T12:08:52.146Z,16.68
2017-07-12T12:13:48.527Z,16.72
2017-07-12T12:18:45.171Z,16.84
2017-07-12T12:23:40.906Z,16.93
2017-07-12T12:28:36.916Z,16.99
2017-07-12T12:33:33.762Z,16.89
2017-07-12T12:38:30.840Z,16.97
2017-07-12T12:43:26.697Z,16.93
2017-07-12T12:48:24.815Z,16.93
2017-07-12T12:53:21.608Z,16.90
2017-07-12T12:58:17.776Z,17.02
2017-07-12T13:03:14.628Z,16.91
2017-07-12T13:08:16.931Z,16.86
2017-07-12T13:13:12.970Z,16.87
2017-07-12T13:18:10.025Z,16.84
2017-07-12T13:23:05.529Z,16.72
2017-07-12T13:28:02.550Z,16.75
2017-07-12T13:32:58.189Z,16.78
2017-07-12T13:37:54.147Z,16.81
2017-07-12T13:42:51.400Z,16.96
2017-07-12T13:47:47.494Z,17.04
2017-07-12T13:52:45.798Z,17.08
2017-07-12T13:57:42.413Z,17.15
2017-07-12T14:02:39.238Z,17.22
2017-07-12T14:07:35.507Z,17.44
2017-07-12T14:12:31.821Z,17.65
2017-07-12T14:17:28.786Z,17.65
2017-07-12T14:22:25.962Z,17.67
2017-07-12T14:27:21.887Z,17.90
2017-07-12T14:32:17.628Z,17.87
2017-07-12T14:37:15.507Z,17.64
2017-07-12T14:42:10.525Z,16.87
2017-07-12T14:47:06.030Z,16.51
2017-07-12T14:52:01.584Z,16.50
2017-07-12T14:56:57.756Z,16.56
2017-07-12T15:01:53.937Z,16.60
2017-07-12T15:06:49.517Z,16.51
2017-07-12T15:11:46.413Z,16.29
2017-07-12T15:16:43.737Z,16.09
2017-07-12T15:21:39.009Z,15.97
2017-07-12T15:26:34.806Z,16.04
2017-07-12T15:31:31.562Z,15.90
2017-07-12T15:36:27.151Z,15.83
2017-07-12T15:41:23.260Z,16.04
2017-07-12T15:46:19.811Z,16.32
2017-07-12T15:51:16.939Z,16.39
2017-07-12T15:56:12.853Z,16.56
2017-07-12T16:01:08.727Z,16.61
2017-07-12T16:06:04.567Z,16.61
2017-07-12T16:11:00.158Z,16.54
2017-07-12T16:15:55.568Z,16.26
2017-07-12T16:20:51.282Z,16.31
2017-07-12T16:25:47.157Z,16.33
2017-07-12T16:30:44.482Z,16.60
2017-07-12T16:35:40.156Z,16.90
2017-07-12T16:40:36.081Z,17.04
2017-07-12T16:45:33.740Z,17.24
2017-07-12T16:50:29.884Z,17.46
2017-07-12T16:55:26.855Z,17.42
2017-07-12T17:00:23.573Z,17.39
2017-07-12T17:05:19.192Z,17.49
2017-07-12T17:10:16.243Z,17.38
2017-07-12T17:15:11.637Z,17.33
2017-07-12T17:20:07.459Z,17.20
2017-07-12T17:25:04.316Z,17.16
2017-07-12T17:29:59.816Z,17.26
2017-07-12T17:34:55.788Z,17.45
2017-07-12T17:39:52.599Z,17.44
2017-07-12T17:44:48.493Z,17.44
2017-07-12T17:49:45.532Z,17.48
2017-07-12T17:54:40.837Z,17.46
2017-07-12T17:59:36.730Z,17.45
2017-07-12T18:04:32.820Z,17.24
2017-07-12T18:09:28.534Z,16.97
2017-07-12T18:14:24.555Z,16.89
2017-07-12T18:19:20.985Z,16.72
2017-07-12T18:24:17.333Z,16.72
2017-07-12T18:29:13.318Z,16.58
2017-07-12T18:34:15.494Z,16.53
2017-07-12T18:39:11.238Z,16.42
2017-07-12T18:44:06.979Z,16.36
2017-07-12T18:49:02.951Z,16.29
2017-07-12T18:53:58.952Z,16.21
2017-07-12T18:58:54.762Z,16.21
2017-07-12T19:03:51.326Z,16.16
2017-07-12T19:08:46.824Z,16.04
2017-07-12T19:13:43.884Z,15.91
2017-07-12T19:18:40.209Z,15.88
2017-07-12T19:23:36.012Z,15.92
2017-07-12T19:28:32.147Z,15.84
2017-07-12T19:33:27.873Z,15.70
2017-07-12T19:38:23.853Z,15.76
2017-07-12T19:43:20.718Z,15.62
2017-07-12T19:48:16.516Z,15.42
2017-07-12T19:53:14.485Z,15.49
2017-07-12T19:58:09.896Z,15.35
2017-07-12T20:03:05.677Z,15.25
2017-07-12T20:08:01.643Z,15.18
2017-07-12T20:12:57.384Z,15.09
2017-07-12T20:17:53.315Z,15.15
2017-07-12T20:22:49.209Z,15.18
2017-07-12T20:27:45.404Z,14.89
2017-07-12T20:32:42.191Z,15.03
2017-07-12T20:37:38.821Z,14.79
2017-07-12T20:42:35.108Z,14.79
2017-07-12T20:47:30.836Z,14.77
2017-07-12T20:52:26.933Z,14.79
2017-07-12T20:57:22.800Z,14.78
2017-07-12T21:02:18.601Z,14.63
2017-07-12T21:07:14.507Z,14.73
2017-07-12T21:12:10.228Z,14.85
2017-07-12T21:17:06.018Z,14.85
2017-07-12T21:22:01.753Z,14.68
2017-07-12T21:26:57.232Z,14.55
2017-07-12T21:31:52.980Z,14.50
2017-07-12T21:36:48.953Z,14.48
2017-07-12T21:41:45.006Z,14.50
2017-07-12T21:46:41.077Z,14.45
2017-07-12T21:51:37.910Z,14.51
2017-07-12T21:56:33.373Z,14.26
2017-07-12T22:01:30.047Z,14.32
2017-07-12T22:06:26.746Z,14.33
2017-07-12T22:11:23.089Z,14.12
2017-07-12T22:16:18.381Z,14.14
2017-07-12T22:21:15.365Z,14.04
2017-07-12T22:26:11.834Z,14.08
2017-07-12T22:31:07.279Z,13.85
2017-07-12T22:36:03.406Z,14.00
2017-07-12T22:40:59.310Z,13.97
2017-07-12T22:45:55.263Z,13.78
2017-07-12T22:50:50.805Z,13.93
2017-07-12T22:55:46.997Z,13.85
2017-07-12T23:00:43.530Z,13.72
2017-07-12T23:05:39.083Z,13.75
2017-07-12T23:10:35.168Z,13.59
2017-07-12T23:15:30.852Z,13.53
2017-07-12T23:20:26.841Z,13.59
2017-07-12T23:25:25.024Z,13.57
2017-07-12T23:30:20.402Z,13.62
2017-07-12T23:35:16.368Z,13.63
2017-07-12T23:40:12.340Z,13.75
2017-07-12T23:45:08.148Z,13.65
2017-07-12T23:50:04.716Z,13.67
2017-07-12T23:55:01.503Z,13.59
2017-07-12T23:59:57.091Z,13.50
